createdAt,value
2022-10-08T00:01:29.285Z,15.75
2022-10-08T00:03:58.113Z,15.87
2022-10-08T00:06:28.325Z,15.89
2022-10-08T00:09:00.276Z,15.92
2022-10-08T00:11:30.441Z,15.83
2022-10-08T00:13:59.515Z,15.86
2022-10-08T00:16:30.060Z,15.81
2022-10-08T00:19:01.324Z,15.55
2022-10-08T00:21:32.461Z,15.60
2022-10-08T00:24:03.293Z,15.49
2022-10-08T00:26:33.901Z,15.48
2022-10-08T00:29:05.492Z,15.39
2022-10-08T00:31:36.391Z,15.22
2022-10-08T00:34:07.108Z,15.11
2022-10-08T00:36:41.245Z,15.16
2022-10-08T00:39:14.737Z,15.31
2022-10-08T00:41:45.371Z,15.36
2022-10-08T00:44:55.539Z,15.49
2022-10-08T00:47:41.890Z,15.39
2022-10-08T00:50:15.018Z,15.25
2022-10-08T00:52:48.710Z,15.23
2022-10-08T00:55:22.377Z,15.18
2022-10-08T00:57:52.286Z,15.15
2022-10-08T01:00:23.262Z,15.12
2022-10-08T01:02:52.011Z,14.92
2022-10-08T01:05:27.833Z,14.97
2022-10-08T01:08:07.739Z,14.82
2022-10-08T01:10:46.065Z,14.64
2022-10-08T01:13:26.661Z,14.57
2022-10-08T01:16:03.048Z,14.30
2022-10-08T01:18:42.839Z,14.26
2022-10-08T01:21:14.984Z,14.23
2022-10-08T01:24:00.816Z,14.34
2022-10-08T01:26:48.320Z,14.24
2022-10-08T01:29:23.129Z,14.28
2022-10-08T01:31:55.473Z,14.31
2022-10-08T01:34:31.918Z,14.39
2022-10-08T01:37:02.547Z,14.51
2022-10-08T01:39:35.680Z,14.52
2022-10-08T01:42:08.851Z,14.56
2022-10-08T01:44:42.075Z,14.62
2022-10-08T01:47:15.050Z,14.67
2022-10-08T01:49:47.426Z,14.71
2022-10-08T01:52:21.626Z,14.64
2022-10-08T01:54:53.829Z,14.56
2022-10-08T01:57:23.764Z,14.44
2022-10-08T01:59:58.654Z,14.49
2022-10-08T02:02:27.761Z,14.38
2022-10-08T02:04:57.214Z,14.33
2022-10-08T02:07:29.223Z,14.22
2022-10-08T02:10:06.723Z,14.05
2022-10-08T02:12:36.579Z,14.10
2022-10-08T02:15:08.561Z,13.97
2022-10-08T02:17:45.611Z,14.03
2022-10-08T02:20:20.599Z,14.14
2022-10-08T02:22:59.110Z,14.28
2022-10-08T02:25:34.736Z,14.31
2022-10-08T02:28:11.399Z,14.38
2022-10-08T02:30:47.571Z,14.43
2022-10-08T02:33:20.864Z,14.44
2022-10-08T02:35:52.658Z,14.25
2022-10-08T02:38:25.363Z,14.02
2022-10-08T02:40:59.515Z,14.01
2022-10-08T02:43:31.668Z,14.05
2022-10-08T02:46:06.270Z,13.96
2022-10-08T02:48:39.335Z,13.97
2022-10-08T02:51:14.630Z,13.74
2022-10-08T02:53:44.151Z,13.82
2022-10-08T02:56:18.128Z,13.74
2022-10-08T02:58:46.903Z,13.69
2022-10-08T03:01:26.693Z,13.62
2022-10-08T03:04:01.500Z,13.64
2022-10-08T03:06:31.538Z,13.66
2022-10-08T03:09:02.797Z,13.47
2022-10-08T03:11:32.472Z,13.62
2022-10-08T03:14:04.521Z,13.70
2022-10-08T03:16:39.615Z,13.48
2022-10-08T03:19:10.575Z,13.74
2022-10-08T03:21:40.585Z,13.83
2022-10-08T03:24:10.062Z,13.86
2022-10-08T03:26:39.050Z,13.90
2022-10-08T03:29:07.989Z,13.86
2022-10-08T03:31:37.926Z,13.85
2022-10-08T03:34:06.840Z,13.86
2022-10-08T03:36:35.294Z,13.63
2022-10-08T03:39:03.867Z,13.65
2022-10-08T03:41:32.422Z,13.65
2022-10-08T03:44:01.153Z,13.68
2022-10-08T03:46:29.724Z,13.61
2022-10-08T03:48:59.630Z,13.62
2022-10-08T03:51:28.101Z,13.51
2022-10-08T03:53:56.707Z,13.56
2022-10-08T03:56:25.487Z,13.57
2022-10-08T03:58:56.069Z,13.55
2022-10-08T04:04:28.350Z,13.33
2022-10-08T04:06:56.797Z,13.27
2022-10-08T04:09:25.253Z,13.19
2022-10-08T04:11:53.812Z,13.13
2022-10-08T04:14:22.268Z,13.07
2022-10-08T04:16:50.755Z,12.99
2022-10-08T04:19:19.226Z,13.12
2022-10-08T04:21:49.042Z,13.20
2022-10-08T04:24:17.482Z,13.17
2022-10-08T04:26:45.955Z,13.24
2022-10-08T04:29:14.566Z,13.23
2022-10-08T04:31:43.224Z,13.17
2022-10-08T04:34:11.829Z,13.14
2022-10-08T04:36:40.369Z,13.09
2022-10-08T04:39:10.244Z,13.01
2022-10-08T04:41:38.706Z,13.04
2022-10-08T04:44:07.594Z,13.13
2022-10-08T04:46:36.191Z,13.08
2022-10-08T04:49:04.747Z,12.88
2022-10-08T04:51:33.186Z,12.99
2022-10-08T04:54:01.855Z,13.07
2022-10-08T04:56:34.890Z,13.19
2022-10-08T04:59:03.727Z,13.04
2022-10-08T05:01:32.363Z,13.11
2022-10-08T05:04:01.605Z,13.13
2022-10-08T05:06:31.846Z,13.06
2022-10-08T05:09:03.373Z,13.14
2022-10-08T05:11:34.233Z,13.08
2022-10-08T05:14:03.410Z,13.03
2022-10-08T05:16:32.088Z,12.88
2022-10-08T05:19:00.952Z,12.89
2022-10-08T05:21:31.284Z,12.81
2022-10-08T05:24:02.050Z,12.77
2022-10-08T05:29:22.642Z,12.71
2022-10-08T05:31:51.107Z,12.65
2022-10-08T05:34:19.973Z,12.67
2022-10-08T05:36:48.454Z,12.51
2022-10-08T05:39:17.063Z,12.46
2022-10-08T05:41:46.907Z,12.35
2022-10-08T05:44:15.561Z,12.37
2022-10-08T05:46:44.110Z,12.58
2022-10-08T05:49:19.633Z,12.69
2022-10-08T05:51:48.379Z,12.76
2022-10-08T05:54:17.599Z,12.71
2022-10-08T05:56:47.834Z,12.76
2022-10-08T05:59:19.104Z,12.74
2022-10-08T06:01:48.001Z,12.74
2022-10-08T06:04:18.504Z,12.81
2022-10-08T06:06:47.512Z,12.80
2022-10-08T06:09:18.293Z,12.82
2022-10-08T06:11:49.189Z,12.84
2022-10-08T06:14:19.346Z,12.88
2022-10-08T06:16:47.866Z,12.94
2022-10-08T06:19:16.801Z,12.81
2022-10-08T06:21:45.271Z,12.84
2022-10-08T06:24:14.247Z,12.78
2022-10-08T06:26:44.445Z,12.42
2022-10-08T06:29:16.215Z,12.43
2022-10-08T06:31:45.588Z,12.48
2022-10-08T06:34:14.179Z,12.46
2022-10-08T06:36:42.958Z,12.56
2022-10-08T06:39:13.443Z,12.51
2022-10-08T06:41:42.611Z,12.52
2022-10-08T06:44:14.502Z,12.54
2022-10-08T06:46:43.927Z,12.55
2022-10-08T06:49:13.019Z,12.44
2022-10-08T06:51:41.823Z,12.32
2022-10-08T06:54:10.275Z,12.42
2022-10-08T06:56:39.515Z,12.41
2022-10-08T06:59:08.922Z,12.39
2022-10-08T07:01:39.538Z,12.42
2022-10-08T07:04:08.068Z,12.42
2022-10-08T07:06:36.888Z,12.60
2022-10-08T07:09:07.198Z,12.64
2022-10-08T07:11:36.178Z,12.76
2022-10-08T07:14:04.904Z,13.02
2022-10-08T07:16:34.117Z,13.08
2022-10-08T07:19:04.051Z,13.33
2022-10-08T07:21:32.702Z,13.49
2022-10-08T07:24:02.343Z,13.70
2022-10-08T07:26:34.308Z,13.85
2022-10-08T07:29:05.010Z,13.93
2022-10-08T07:31:35.634Z,13.95
2022-10-08T07:34:07.242Z,14.16
2022-10-08T07:36:36.317Z,14.24
2022-10-08T07:39:07.172Z,14.35
2022-10-08T07:41:36.307Z,14.44
2022-10-08T07:44:06.093Z,14.60
2022-10-08T07:46:36.807Z,14.79
2022-10-08T07:49:06.970Z,15.07
2022-10-08T07:51:36.691Z,15.10
2022-10-08T07:54:08.610Z,15.16
2022-10-08T07:56:37.950Z,15.42
2022-10-08T07:59:07.335Z,15.61
2022-10-08T08:01:35.947Z,15.83
2022-10-08T08:04:07.947Z,16.06
2022-10-08T08:06:41.102Z,16.17
2022-10-08T08:09:10.427Z,16.45
2022-10-08T08:11:40.104Z,16.71
2022-10-08T08:14:09.347Z,18.12
2022-10-08T08:16:37.878Z,19.63
2022-10-08T08:19:17.055Z,21.18
2022-10-08T08:21:47.922Z,22.48
2022-10-08T08:24:16.711Z,23.35
2022-10-08T08:26:45.233Z,24.88
2022-10-08T08:29:15.305Z,25.42
2022-10-08T08:31:46.368Z,26.76
2022-10-08T08:34:17.806Z,27.00
2022-10-08T08:36:49.658Z,27.34
2022-10-08T08:39:20.849Z,27.95
2022-10-08T08:41:56.212Z,28.04
2022-10-08T08:44:28.473Z,28.24
2022-10-08T08:47:01.393Z,29.03
2022-10-08T08:49:35.237Z,28.80
2022-10-08T08:52:05.265Z,29.44
2022-10-08T08:54:34.229Z,30.01
2022-10-08T08:57:24.897Z,30.76
2022-10-08T08:59:57.285Z,29.95
2022-10-08T09:02:31.076Z,32.15
2022-10-08T09:05:04.719Z,33.40
2022-10-08T09:07:42.045Z,34.51
2022-10-08T09:10:18.300Z,34.03
2022-10-08T09:12:47.112Z,33.60
2022-10-08T09:15:19.530Z,33.83
2022-10-08T09:17:53.243Z,33.41
2022-10-08T09:20:25.713Z,33.68
2022-10-08T09:22:55.846Z,33.18
2022-10-08T09:25:28.370Z,34.30
2022-10-08T09:27:58.727Z,35.64
2022-10-08T09:30:33.820Z,36.73
2022-10-08T09:33:05.964Z,36.41
2022-10-08T09:35:41.233Z,36.27
2022-10-08T09:38:21.257Z,37.93
2022-10-08T09:41:02.014Z,39.64
2022-10-08T09:43:30.823Z,39.50
2022-10-08T09:45:59.322Z,40.06
2022-10-08T09:48:29.343Z,39.99
2022-10-08T09:51:02.613Z,40.71
2022-10-08T09:53:36.091Z,41.09
2022-10-08T09:56:07.650Z,40.80
2022-10-08T09:58:50.342Z,40.91
2022-10-08T10:01:19.468Z,41.14
2022-10-08T10:03:54.636Z,40.11
2022-10-08T10:06:29.913Z,39.51
2022-10-08T10:09:03.277Z,41.34
2022-10-08T10:11:38.041Z,41.74
2022-10-08T10:14:15.501Z,40.63
2022-10-08T10:16:47.196Z,41.21
2022-10-08T10:19:20.111Z,39.98
2022-10-08T10:21:56.176Z,40.21
2022-10-08T10:24:34.460Z,40.64
2022-10-08T10:27:10.140Z,41.30
2022-10-08T10:29:59.145Z,40.91
2022-10-08T10:32:32.302Z,41.79
2022-10-08T10:35:07.735Z,41.96
2022-10-08T10:37:46.830Z,41.57
2022-10-08T10:40:37.957Z,42.44
2022-10-08T10:43:26.760Z,43.56
2022-10-08T10:46:01.508Z,41.67
2022-10-08T10:48:30.821Z,39.96
2022-10-08T10:51:10.721Z,39.34
2022-10-08T10:53:51.357Z,36.63
2022-10-08T10:56:21.781Z,34.66
2022-10-08T10:59:10.159Z,35.39
2022-10-08T11:01:49.436Z,35.23
2022-10-08T11:04:31.266Z,32.37
2022-10-08T11:07:07.338Z,33.30
2022-10-08T11:09:45.913Z,32.93
2022-10-08T11:12:27.490Z,34.22
2022-10-08T11:15:08.819Z,35.54
2022-10-08T11:17:54.957Z,36.24
2022-10-08T11:20:45.045Z,34.46
2022-10-08T11:23:26.522Z,33.64
2022-10-08T11:26:21.442Z,35.47
2022-10-08T11:29:01.152Z,36.54
2022-10-08T11:31:37.377Z,39.51
2022-10-08T11:34:08.187Z,39.77
2022-10-08T11:36:41.336Z,38.03
2022-10-08T11:39:17.587Z,33.64
2022-10-08T11:41:57.824Z,34.34
2022-10-08T11:44:28.765Z,34.49
2022-10-08T11:47:36.520Z,36.17
2022-10-08T11:50:07.554Z,35.13
2022-10-08T11:52:37.293Z,34.83
2022-10-08T11:55:06.531Z,34.88
2022-10-08T11:58:06.275Z,35.30
2022-10-08T12:00:37.862Z,36.09
2022-10-08T12:03:07.480Z,34.80
2022-10-08T12:05:46.659Z,36.49
2022-10-08T12:08:51.789Z,36.75
2022-10-08T12:11:48.223Z,36.81
2022-10-08T12:14:49.503Z,34.53
2022-10-08T12:17:18.733Z,35.32
2022-10-08T12:20:03.343Z,33.75
2022-10-08T12:22:47.099Z,33.22
2022-10-08T12:25:37.805Z,32.42
2022-10-08T12:28:47.188Z,34.65
2022-10-08T12:31:31.198Z,34.99
2022-10-08T12:34:02.682Z,33.72
2022-10-08T12:36:59.299Z,33.49
2022-10-08T12:39:36.391Z,33.25
2022-10-08T12:42:19.416Z,31.48
2022-10-08T12:45:15.159Z,30.40
2022-10-08T12:47:55.647Z,30.04
2022-10-08T12:50:45.603Z,30.11
2022-10-08T12:53:17.156Z,30.77
2022-10-08T12:55:50.472Z,30.30
2022-10-08T12:58:23.273Z,30.21
2022-10-08T13:00:54.685Z,30.03
2022-10-08T13:03:25.586Z,30.49
2022-10-08T13:05:55.441Z,30.05
2022-10-08T13:08:36.177Z,30.23
2022-10-08T13:11:06.722Z,29.95
2022-10-08T13:13:50.536Z,30.27
2022-10-08T13:16:21.399Z,30.62
2022-10-08T13:18:53.843Z,30.99
2022-10-08T13:21:37.341Z,30.60
2022-10-08T13:24:33.811Z,30.30
2022-10-08T13:27:02.281Z,30.33
2022-10-08T13:29:33.320Z,30.83
2022-10-08T13:32:04.914Z,30.16
2022-10-08T13:34:42.741Z,29.74
2022-10-08T13:37:14.162Z,29.18
2022-10-08T13:39:45.052Z,29.72
2022-10-08T13:42:17.949Z,30.02
2022-10-08T13:44:47.139Z,29.58
2022-10-08T14:16:02.165Z,29.31
2022-10-08T14:18:30.896Z,29.31
2022-10-08T14:20:59.447Z,29.62
2022-10-08T14:23:27.954Z,29.77
2022-10-08T14:25:56.389Z,30.02
2022-10-08T14:28:24.972Z,30.05
2022-10-08T14:30:53.460Z,29.99
2022-10-08T14:33:23.832Z,29.84
2022-10-08T14:35:53.725Z,29.80
2022-10-08T14:38:22.162Z,29.54
2022-10-08T14:40:50.650Z,29.47
2022-10-08T14:43:19.911Z,29.57
2022-10-08T14:45:48.907Z,29.51
2022-10-08T14:48:17.415Z,29.22
2022-10-08T14:50:47.531Z,29.35
2022-10-08T14:53:16.140Z,29.09
2022-10-08T14:56:07.484Z,29.14
2022-10-08T14:58:33.033Z,28.95
2022-10-08T15:01:01.559Z,28.89
2022-10-08T15:03:30.186Z,29.05
2022-10-08T15:06:01.638Z,28.85
2022-10-08T15:08:30.175Z,28.85
2022-10-08T15:10:58.626Z,28.87
2022-10-08T15:13:27.055Z,28.84
2022-10-08T15:15:55.451Z,28.82
2022-10-08T15:18:23.874Z,28.83
2022-10-08T15:20:56.764Z,28.87
2022-10-08T15:23:27.408Z,28.89
2022-10-08T15:26:00.273Z,29.03
2022-10-08T15:28:29.557Z,28.98
2022-10-08T15:31:06.119Z,28.81
2022-10-08T15:33:39.233Z,28.70
2022-10-08T15:36:18.919Z,28.57
2022-10-08T15:38:49.788Z,28.62
2022-10-08T15:41:18.545Z,28.36
2022-10-08T15:43:47.264Z,28.28
2022-10-08T15:46:18.007Z,28.21
2022-10-08T15:48:52.737Z,28.29
2022-10-08T15:51:21.308Z,28.28
2022-10-08T15:53:51.609Z,28.27
2022-10-08T15:56:20.187Z,28.26
2022-10-08T15:58:51.188Z,28.26
2022-10-08T16:01:23.051Z,28.15
2022-10-08T16:03:53.408Z,28.23
2022-10-08T16:06:23.808Z,28.06
2022-10-08T16:08:54.365Z,27.98
2022-10-08T16:11:24.516Z,27.93
2022-10-08T16:13:54.847Z,27.82
2022-10-08T16:16:24.019Z,27.68
2022-10-08T16:18:57.998Z,27.54
2022-10-08T16:21:27.565Z,27.57
2022-10-08T16:23:58.293Z,27.59
2022-10-08T16:26:29.017Z,27.53
2022-10-08T16:28:59.764Z,27.43
2022-10-08T16:31:29.718Z,27.44
2022-10-08T16:33:59.553Z,27.36
2022-10-08T16:36:28.958Z,27.14
2022-10-08T16:38:59.354Z,27.23
2022-10-08T16:41:30.112Z,27.20
2022-10-08T16:44:00.980Z,27.04
2022-10-08T16:46:31.336Z,27.05
2022-10-08T16:49:01.882Z,26.94
2022-10-08T16:51:32.054Z,26.88
2022-10-08T16:54:02.603Z,26.79
2022-10-08T16:56:33.909Z,26.71
2022-10-08T16:59:05.918Z,26.73
2022-10-08T17:01:35.592Z,26.60
2022-10-08T17:04:06.830Z,26.48
2022-10-08T17:06:36.325Z,26.41
2022-10-08T17:09:06.830Z,26.36
2022-10-08T17:11:36.169Z,26.21
2022-10-08T17:14:05.577Z,25.86
2022-10-08T17:16:34.735Z,25.75
2022-10-08T17:19:03.693Z,25.51
2022-10-08T17:21:35.112Z,25.31
2022-10-08T17:24:05.300Z,25.21
2022-10-08T17:26:33.860Z,25.07
2022-10-08T17:29:04.978Z,24.96
2022-10-08T17:31:33.710Z,24.83
2022-10-08T17:34:03.082Z,24.73
2022-10-08T17:36:33.587Z,24.65
2022-10-08T17:39:03.484Z,24.53
2022-10-08T17:41:34.968Z,24.40
2022-10-08T17:44:05.249Z,24.27
2022-10-08T17:46:35.530Z,24.15
2022-10-08T17:49:04.614Z,24.00
2022-10-08T17:51:33.792Z,23.94
2022-10-08T17:54:03.422Z,23.82
2022-10-08T17:56:34.032Z,23.70
2022-10-08T17:59:02.683Z,23.61
2022-10-08T18:01:33.173Z,23.58
2022-10-08T18:04:03.346Z,23.52
2022-10-08T18:06:33.551Z,23.42
2022-10-08T18:09:03.171Z,23.31
2022-10-08T18:11:35.770Z,23.25
2022-10-08T18:14:05.672Z,23.17
2022-10-08T18:16:34.680Z,23.07
2022-10-08T18:19:08.349Z,22.96
2022-10-08T18:21:37.707Z,22.86
2022-10-08T18:24:06.483Z,22.78
2022-10-08T18:26:37.489Z,22.71
2022-10-08T18:29:09.289Z,22.55
2022-10-08T18:31:39.135Z,22.45
2022-10-08T18:34:09.751Z,22.31
2022-10-08T18:36:39.456Z,22.23
2022-10-08T18:39:13.013Z,22.17
2022-10-08T18:41:44.369Z,22.12
2022-10-08T18:44:16.348Z,21.82
2022-10-08T18:46:45.759Z,21.86
2022-10-08T18:49:15.637Z,21.78
2022-10-08T18:51:44.388Z,21.75
2022-10-08T18:54:13.735Z,21.75
2022-10-08T18:56:43.608Z,21.70
2022-10-08T18:59:14.953Z,21.68
2022-10-08T19:01:46.057Z,21.57
2022-10-08T19:04:17.044Z,21.55
2022-10-08T19:06:47.541Z,21.48
2022-10-08T19:09:16.301Z,21.40
2022-10-08T19:11:47.757Z,21.28
2022-10-08T19:14:18.169Z,21.01
2022-10-08T19:16:47.306Z,21.02
2022-10-08T19:19:17.572Z,21.03
2022-10-08T19:21:46.945Z,20.98
2022-10-08T19:24:18.031Z,21.00
2022-10-08T19:26:48.665Z,20.85
2022-10-08T19:29:19.405Z,20.90
2022-10-08T19:31:48.752Z,20.84
2022-10-08T19:34:19.914Z,20.81
2022-10-08T19:36:48.762Z,20.67
2022-10-08T19:39:18.915Z,20.68
2022-10-08T19:41:49.799Z,20.53
2022-10-08T19:44:18.350Z,20.49
2022-10-08T19:46:46.921Z,20.45
2022-10-08T19:49:16.386Z,20.41
2022-10-08T19:51:45.214Z,20.15
2022-10-08T19:54:14.225Z,19.79
2022-10-08T19:56:43.204Z,19.76
2022-10-08T19:59:13.457Z,19.67
2022-10-08T20:01:43.636Z,19.68
2022-10-08T20:04:14.105Z,19.74
2022-10-08T20:06:44.135Z,19.74
2022-10-08T20:09:14.998Z,19.47
2022-10-08T20:11:45.489Z,19.36
2022-10-08T20:14:16.157Z,19.23
2022-10-08T20:16:45.416Z,18.92
2022-10-08T20:19:17.251Z,18.91
2022-10-08T20:21:46.028Z,19.05
2022-10-08T20:24:15.603Z,19.09
2022-10-08T20:26:45.953Z,19.13
2022-10-08T20:29:17.819Z,19.21
2022-10-08T20:31:49.608Z,19.08
2022-10-08T20:34:19.612Z,18.94
2022-10-08T20:36:49.020Z,18.80
2022-10-08T20:39:19.543Z,18.75
2022-10-08T20:41:48.070Z,18.72
2022-10-08T20:44:18.053Z,18.82
2022-10-08T20:46:46.616Z,18.85
2022-10-08T20:49:15.398Z,18.94
2022-10-08T20:51:45.138Z,18.90
2022-10-08T20:54:15.522Z,18.98
2022-10-08T20:56:44.261Z,18.95
2022-10-08T20:59:16.451Z,18.80
2022-10-08T21:01:47.056Z,18.57
2022-10-08T21:04:15.636Z,18.69
2022-10-08T21:06:45.801Z,18.71
2022-10-08T21:09:14.921Z,18.69
2022-10-08T21:11:45.983Z,18.68
2022-10-08T21:14:17.281Z,18.64
2022-10-08T21:16:47.690Z,18.51
2022-10-08T21:19:21.614Z,18.35
2022-10-08T21:21:50.370Z,18.32
2022-10-08T21:24:19.795Z,17.99
2022-10-08T21:26:48.252Z,17.87
2022-10-08T21:29:16.777Z,17.79
2022-10-08T21:31:46.746Z,17.72
2022-10-08T21:34:15.259Z,17.60
2022-10-08T21:36:44.831Z,17.51
2022-10-08T21:39:16.840Z,17.46
2022-10-08T21:41:45.855Z,17.49
2022-10-08T21:44:15.169Z,17.53
2022-10-08T21:46:44.851Z,17.63
2022-10-08T21:49:17.213Z,17.62
2022-10-08T21:51:45.929Z,17.64
2022-10-08T21:54:15.272Z,17.71
2022-10-08T21:56:44.469Z,17.72
2022-10-08T21:59:14.995Z,17.84
2022-10-08T22:01:46.281Z,17.84
2022-10-08T22:04:20.024Z,17.72
2022-10-08T22:06:50.952Z,17.56
2022-10-08T22:09:22.119Z,17.57
2022-10-08T22:11:51.360Z,17.62
2022-10-08T22:14:20.273Z,17.59
2022-10-08T22:16:49.342Z,17.66
2022-10-08T22:19:19.830Z,17.55
2022-10-08T22:21:48.404Z,17.37
2022-10-08T22:24:16.956Z,17.09
2022-10-08T22:26:47.531Z,16.94
2022-10-08T22:29:16.512Z,16.81
2022-10-08T22:31:45.374Z,16.82
2022-10-08T22:34:14.454Z,16.84
2022-10-08T22:36:45.602Z,16.79
2022-10-08T22:39:14.125Z,16.71
2022-10-08T22:41:42.866Z,16.79
2022-10-08T22:44:11.402Z,16.86
2022-10-08T22:46:40.804Z,16.77
2022-10-08T22:49:12.319Z,16.77
2022-10-08T22:51:41.628Z,16.63
2022-10-08T22:54:11.453Z,16.74
2022-10-08T22:56:39.929Z,16.71
2022-10-08T22:59:08.626Z,16.76
2022-10-08T23:01:37.136Z,16.73
2022-10-08T23:04:05.573Z,16.75
2022-10-08T23:06:35.773Z,16.78
2022-10-08T23:09:06.682Z,16.75
2022-10-08T23:11:36.683Z,16.50
2022-10-08T23:14:06.847Z,16.42
2022-10-08T23:16:35.902Z,16.46
2022-10-08T23:19:06.371Z,16.62
2022-10-08T23:21:35.971Z,16.70
2022-10-08T23:24:04.477Z,16.72
2022-10-08T23:26:33.253Z,16.68
2022-10-08T23:29:03.909Z,16.49
2022-10-08T23:31:34.918Z,16.47
2022-10-08T23:34:03.861Z,16.41
2022-10-08T23:36:34.782Z,16.32
2022-10-08T23:39:03.661Z,16.35
2022-10-08T23:41:32.096Z,16.34
2022-10-08T23:44:00.773Z,16.25
2022-10-08T23:46:31.768Z,16.26
2022-10-08T23:49:01.029Z,16.19
2022-10-08T23:51:32.158Z,16.27
2022-10-08T23:54:02.340Z,16.25
2022-10-08T23:56:30.808Z,16.24
2022-10-08T23:58:59.905Z,16.29
